Terminal Aerodrome Forecast
Issued by NWS

Home | Current Version | Previous Version | Text Only | Print | Product List | Glossary On
Versions: 1 2 3 4 5 6 7 8 9 10 11 12 13 14 15
000
FTUS45 KABQ 270500
TAFFMN
TAF
KFMN 270525Z 2706/2806 30004KT P6SM FEW040
     FM271100 VRB03KT P6SM VCFG FEW001
     FM271600 26005KT P6SM SKC
     FM272000 27009KT P6SM FEW200=

USA.gov is the U.S. government's official web portal to all federal, state and local government web resources and services.